sensor_id;sensor_type;location;lat;lon;timestamp;pressure;altitude;pressure_sealevel;temperature;humidity
43161;BME280;40968;52.342;5.528;2024-03-22T00:02:06;101825.88;;;8.88;89.67
43161;BME280;40968;52.342;5.528;2024-03-22T00:04:33;102055.03;;;10.27;89.91
43161;BME280;40968;52.342;5.528;2024-03-22T00:07:00;102046.91;;;10.29;90.10
43161;BME280;40968;52.342;5.528;2024-03-22T00:09:25;101821.56;;;9.03;90.33
43161;BME280;40968;52.342;5.528;2024-03-22T00:11:52;102028.94;;;10.31;90.84
43161;BME280;40968;52.342;5.528;2024-03-22T00:14:18;101699.97;;;8.41;90.62
43161;BME280;40968;52.342;5.528;2024-03-22T00:16:44;101924.69;;;9.77;91.09
43161;BME280;40968;52.342;5.528;2024-03-22T00:19:10;101978.41;;;10.07;91.14
43161;BME280;40968;52.342;5.528;2024-03-22T00:21:37;102010.84;;;10.35;91.52
43161;BME280;40968;52.342;5.528;2024-03-22T00:24:03;102005.59;;;10.33;91.63
43161;BME280;40968;52.342;5.528;2024-03-22T00:26:30;102014.50;;;10.34;91.68
43161;BME280;40968;52.342;5.528;2024-03-22T00:28:55;102021.56;;;10.35;92.26
43161;BME280;40968;52.342;5.528;2024-03-22T00:31:23;101752.22;;;8.82;92.23
43161;BME280;40968;52.342;5.528;2024-03-22T00:33:49;102000.97;;;10.37;92.50
43161;BME280;40968;52.342;5.528;2024-03-22T00:36:15;102007.19;;;10.37;92.60
43161;BME280;40968;52.342;5.528;2024-03-22T00:38:42;102000.88;;;10.38;92.83
43161;BME280;40968;52.342;5.528;2024-03-22T00:41:09;101979.34;;;10.40;92.86
43161;BME280;40968;52.342;5.528;2024-03-22T00:43:34;101973.97;;;10.40;93.12
43161;BME280;40968;52.342;5.528;2024-03-22T00:46:01;101955.50;;;10.35;93.29
43161;BME280;40968;52.342;5.528;2024-03-22T00:48:27;101914.66;;;10.14;93.39
43161;BME280;40968;52.342;5.528;2024-03-22T00:50:54;101957.91;;;10.40;93.55
43161;BME280;40968;52.342;5.528;2024-03-22T00:53:20;101954.38;;;10.39;93.73
43161;BME280;40968;52.342;5.528;2024-03-22T00:55:48;101585.69;;;8.13;93.75
43161;BME280;40968;52.342;5.528;2024-03-22T00:58:17;101960.59;;;10.40;94.06
43161;BME280;40968;52.342;5.528;2024-03-22T01:00:43;101849.47;;;9.66;94.02
43161;BME280;40968;52.342;5.528;2024-03-22T01:03:09;101958.59;;;10.43;94.17
43161;BME280;40968;52.342;5.528;2024-03-22T01:05:36;101760.53;;;9.27;94.15
43161;BME280;40968;52.342;5.528;2024-03-22T01:08:01;101904.88;;;10.13;94.42
43161;BME280;40968;52.342;5.528;2024-03-22T01:10:28;101927.28;;;10.28;94.50
43161;BME280;40968;52.342;5.528;2024-03-22T01:12:55;101968.28;;;10.46;94.70
43161;BME280;40968;52.342;5.528;2024-03-22T01:15:21;101746.03;;;9.15;94.67
43161;BME280;40968;52.342;5.528;2024-03-22T01:17:47;101966.41;;;10.48;94.96
43161;BME280;40968;52.342;5.528;2024-03-22T01:20:14;101962.94;;;10.46;95.06
43161;BME280;40968;52.342;5.528;2024-03-22T01:22:39;101961.81;;;10.50;94.99
43161;BME280;40968;52.342;5.528;2024-03-22T01:25:07;101861.31;;;9.93;95.02
43161;BME280;40968;52.342;5.528;2024-03-22T01:27:32;101949.19;;;10.52;95.07
43161;BME280;40968;52.342;5.528;2024-03-22T01:30:00;101948.16;;;10.55;95.12
43161;BME280;40968;52.342;5.528;2024-03-22T01:32:26;101724.22;;;9.23;94.97
43161;BME280;40968;52.342;5.528;2024-03-22T01:34:53;101892.72;;;10.23;95.04
43161;BME280;40968;52.342;5.528;2024-03-22T01:37:18;101916.56;;;10.44;95.12
43161;BME280;40968;52.342;5.528;2024-03-22T01:39:45;101717.66;;;9.28;94.83
43161;BME280;40968;52.342;5.528;2024-03-22T01:42:10;101931.13;;;10.56;95.03
43161;BME280;40968;52.342;5.528;2024-03-22T01:44:37;101884.25;;;10.31;95.05
43161;BME280;40968;52.342;5.528;2024-03-22T01:47:04;101719.22;;;9.33;94.80
43161;BME280;40968;52.342;5.528;2024-03-22T01:49:30;101936.56;;;10.54;94.92
43161;BME280;40968;52.342;5.528;2024-03-22T01:51:57;101878.53;;;10.21;94.89
43161;BME280;40968;52.342;5.528;2024-03-22T01:54:23;101932.16;;;10.53;95.04
43161;BME280;40968;52.342;5.528;2024-03-22T01:56:49;101929.47;;;10.53;94.97
43161;BME280;40968;52.342;5.528;2024-03-22T01:59:16;101692.81;;;9.10;94.66
43161;BME280;40968;52.342;5.528;2024-03-22T02:01:42;101929.53;;;10.52;94.94
43161;BME280;40968;52.342;5.528;2024-03-22T02:04:10;101870.75;;;10.17;94.67
43161;BME280;40968;52.342;5.528;2024-03-22T02:06:36;101874.19;;;10.19;94.87
43161;BME280;40968;52.342;5.528;2024-03-22T02:09:03;101870.66;;;10.18;94.93
43161;BME280;40968;52.342;5.528;2024-03-22T02:11:30;101757.75;;;9.46;94.69
43161;BME280;40968;52.342;5.528;2024-03-22T02:13:57;101914.50;;;10.49;94.83
43161;BME280;40968;52.342;5.528;2024-03-22T02:16:22;101883.22;;;10.34;94.80
43161;BME280;40968;52.342;5.528;2024-03-22T02:18:49;101801.09;;;9.85;94.88
43161;BME280;40968;52.342;5.528;2024-03-22T02:21:16;101909.31;;;10.46;94.72
43161;BME280;40968;52.342;5.528;2024-03-22T02:23:44;101850.72;;;10.08;94.63
43161;BME280;40968;52.342;5.528;2024-03-22T02:26:10;101863.34;;;10.22;94.83
43161;BME280;40968;52.342;5.528;2024-03-22T02:28:36;101895.13;;;10.44;94.82
43161;BME280;40968;52.342;5.528;2024-03-22T02:31:02;101778.56;;;9.73;94.69
43161;BME280;40968;52.342;5.528;2024-03-22T02:33:29;101587.75;;;8.59;94.79
43161;BME280;40968;52.342;5.528;2024-03-22T02:35:55;101784.34;;;9.81;94.81
43161;BME280;40968;52.342;5.528;2024-03-22T02:38:21;101886.25;;;10.43;94.90
43161;BME280;40968;52.342;5.528;2024-03-22T02:40:51;101879.06;;;10.44;94.68
43161;BME280;40968;52.342;5.528;2024-03-22T02:43:18;101872.00;;;10.43;94.39
43161;BME280;40968;52.342;5.528;2024-03-22T02:45:44;101617.56;;;9.01;94.36
43161;BME280;40968;52.342;5.528;2024-03-22T02:48:10;101822.00;;;10.26;94.47
43161;BME280;40968;52.342;5.528;2024-03-22T02:50:37;101835.03;;;10.32;94.51
43161;BME280;40968;52.342;5.528;2024-03-22T02:53:04;101856.97;;;10.40;94.44
43161;BME280;40968;52.342;5.528;2024-03-22T02:55:30;101800.22;;;10.16;94.58
43161;BME280;40968;52.342;5.528;2024-03-22T02:58:04;101839.91;;;10.41;94.42
43161;BME280;40968;52.342;5.528;2024-03-22T03:00:29;101825.66;;;10.41;94.48
43161;BME280;40968;52.342;5.528;2024-03-22T03:02:56;101609.63;;;9.15;94.35
43161;BME280;40968;52.342;5.528;2024-03-22T03:05:21;101509.41;;;8.58;94.22
43161;BME280;40968;52.342;5.528;2024-03-22T03:07:48;101774.03;;;10.21;94.31
43161;BME280;40968;52.342;5.528;2024-03-22T03:10:14;101570.47;;;8.98;94.30
43161;BME280;40968;52.342;5.528;2024-03-22T03:12:41;101584.00;;;9.11;94.36
43161;BME280;40968;52.342;5.528;2024-03-22T03:15:08;101776.53;;;10.24;94.28
43161;BME280;40968;52.342;5.528;2024-03-22T03:17:34;101707.50;;;9.83;94.32
43161;BME280;40968;52.342;5.528;2024-03-22T03:20:00;101752.53;;;10.07;94.22
43161;BME280;40968;52.342;5.528;2024-03-22T03:22:27;101744.19;;;9.97;94.17
43161;BME280;40968;52.342;5.528;2024-03-22T03:24:53;101795.97;;;10.28;94.31
43161;BME280;40968;52.342;5.528;2024-03-22T03:27:19;101797.81;;;10.27;94.41
43161;BME280;40968;52.342;5.528;2024-03-22T03:29:45;101788.13;;;10.25;94.38
43161;BME280;40968;52.342;5.528;2024-03-22T03:32:13;101714.56;;;9.84;94.38
43161;BME280;40968;52.342;5.528;2024-03-22T03:34:38;101793.50;;;10.25;94.41
43161;BME280;40968;52.342;5.528;2024-03-22T03:37:05;101729.22;;;9.93;94.48
43161;BME280;40968;52.342;5.528;2024-03-22T03:39:30;101720.34;;;9.92;94.58
43161;BME280;40968;52.342;5.528;2024-03-22T03:41:57;101719.50;;;9.92;94.50
43161;BME280;40968;52.342;5.528;2024-03-22T03:44:23;101761.34;;;10.25;94.43
43161;BME280;40968;52.342;5.528;2024-03-22T03:46:49;101644.22;;;9.50;94.13
43161;BME280;40968;52.342;5.528;2024-03-22T03:49:16;101543.81;;;8.96;94.04
43161;BME280;40968;52.342;5.528;2024-03-22T03:51:42;101753.56;;;10.20;94.24
43161;BME280;40968;52.342;5.528;2024-03-22T03:54:08;101758.91;;;10.20;94.32
43161;BME280;40968;52.342;5.528;2024-03-22T03:56:35;101660.53;;;9.61;94.38
43161;BME280;40968;52.342;5.528;2024-03-22T03:59:00;101760.06;;;10.16;94.57
43161;BME280;40968;52.342;5.528;2024-03-22T04:01:27;101646.91;;;9.50;94.47
43161;BME280;40968;52.342;5.528;2024-03-22T04:03:52;101768.28;;;10.13;94.49
43161;BME280;40968;52.342;5.528;2024-03-22T04:06:20;101580.13;;;9.01;94.45
43161;BME280;40968;52.342;5.528;2024-03-22T04:08:46;101668.31;;;9.50;94.25
43161;BME280;40968;52.342;5.528;2024-03-22T04:11:12;101775.53;;;10.11;94.32
43161;BME280;40968;52.342;5.528;2024-03-22T04:13:38;101771.09;;;10.10;94.25
43161;BME280;40968;52.342;5.528;2024-03-22T04:16:05;101713.03;;;9.80;94.36
43161;BME280;40968;52.342;5.528;2024-03-22T04:18:31;101754.28;;;10.08;94.25
43161;BME280;40968;52.342;5.528;2024-03-22T04:20:58;101471.78;;;8.29;93.77
43161;BME280;40968;52.342;5.528;2024-03-22T04:23:26;101759.63;;;10.08;94.19
43161;BME280;40968;52.342;5.528;2024-03-22T04:25:53;101766.81;;;10.07;94.25
43161;BME280;40968;52.342;5.528;2024-03-22T04:28:19;101714.13;;;9.76;94.26
43161;BME280;40968;52.342;5.528;2024-03-22T04:30:54;101765.19;;;10.05;94.18
43161;BME280;40968;52.342;5.528;2024-03-22T04:33:20;101696.72;;;9.69;94.05
43161;BME280;40968;52.342;5.528;2024-03-22T04:35:46;101752.75;;;10.04;94.25
43161;BME280;40968;52.342;5.528;2024-03-22T04:38:12;101747.38;;;10.04;94.02
43161;BME280;40968;52.342;5.528;2024-03-22T04:40:40;101708.72;;;9.77;93.79
43161;BME280;40968;52.342;5.528;2024-03-22T04:43:07;101753.88;;;10.00;94.05
43161;BME280;40968;52.342;5.528;2024-03-22T04:45:33;101749.47;;;9.99;93.85
43161;BME280;40968;52.342;5.528;2024-03-22T04:48:01;101608.41;;;9.05;93.79
43161;BME280;40968;52.342;5.528;2024-03-22T04:50:26;101708.53;;;9.65;93.58
43161;BME280;40968;52.342;5.528;2024-03-22T04:52:53;101755.84;;;9.96;93.53
43161;BME280;40968;52.342;5.528;2024-03-22T04:55:19;101733.31;;;9.84;93.74
43161;BME280;40968;52.342;5.528;2024-03-22T04:57:46;101537.84;;;8.59;93.44
43161;BME280;40968;52.342;5.528;2024-03-22T05:00:13;101701.63;;;9.60;93.53
43161;BME280;40968;52.342;5.528;2024-03-22T05:02:40;101654.25;;;9.31;93.42
43161;BME280;40968;52.342;5.528;2024-03-22T05:05:06;101547.25;;;8.67;93.17
43161;BME280;40968;52.342;5.528;2024-03-22T05:07:33;101753.50;;;9.90;93.39
43161;BME280;40968;52.342;5.528;2024-03-22T05:09:59;101752.56;;;9.91;93.55
43161;BME280;40968;52.342;5.528;2024-03-22T05:12:25;101745.47;;;9.90;93.64
43161;BME280;40968;52.342;5.528;2024-03-22T05:14:53;101752.47;;;9.92;93.54
43161;BME280;40968;52.342;5.528;2024-03-22T05:17:19;101748.25;;;9.88;93.29
43161;BME280;40968;52.342;5.528;2024-03-22T05:19:45;101715.44;;;9.69;93.52
43161;BME280;40968;52.342;5.528;2024-03-22T05:22:11;101655.19;;;9.29;93.16
43161;BME280;40968;52.342;5.528;2024-03-22T05:24:37;101579.09;;;8.87;93.24
43161;BME280;40968;52.342;5.528;2024-03-22T05:27:03;101718.13;;;9.69;93.55
43161;BME280;40968;52.342;5.528;2024-03-22T05:29:30;101565.28;;;8.79;93.10
43161;BME280;40968;52.342;5.528;2024-03-22T05:31:57;101737.13;;;9.80;93.44
43161;BME280;40968;52.342;5.528;2024-03-22T05:34:23;101568.53;;;8.84;93.19
43161;BME280;40968;52.342;5.528;2024-03-22T05:36:49;101707.75;;;9.62;93.34
43161;BME280;40968;52.342;5.528;2024-03-22T05:39:15;101518.88;;;8.48;93.14
43161;BME280;40968;52.342;5.528;2024-03-22T05:41:41;101729.25;;;9.77;93.13
43161;BME280;40968;52.342;5.528;2024-03-22T05:44:08;101502.09;;;8.44;93.06
43161;BME280;40968;52.342;5.528;2024-03-22T05:46:33;101728.50;;;9.75;93.25
43161;BME280;40968;52.342;5.528;2024-03-22T05:49:01;101736.53;;;9.75;93.18
43161;BME280;40968;52.342;5.528;2024-03-22T05:51:28;101669.78;;;9.40;92.94
43161;BME280;40968;52.342;5.528;2024-03-22T05:53:55;101614.66;;;9.05;93.01
43161;BME280;40968;52.342;5.528;2024-03-22T05:56:21;101494.50;;;8.37;92.83
43161;BME280;40968;52.342;5.528;2024-03-22T05:58:48;101718.72;;;9.74;92.94
43161;BME280;40968;52.342;5.528;2024-03-22T06:01:13;101726.75;;;9.74;92.99
43161;BME280;40968;52.342;5.528;2024-03-22T06:03:40;101718.72;;;9.74;92.91
43161;BME280;40968;52.342;5.528;2024-03-22T06:06:07;101709.75;;;9.75;92.93
43161;BME280;40968;52.342;5.528;2024-03-22T06:08:33;101489.69;;;8.43;92.84
43161;BME280;40968;52.342;5.528;2024-03-22T06:11:00;101709.75;;;9.75;92.72
43161;BME280;40968;52.342;5.528;2024-03-22T06:13:26;101710.59;;;9.75;92.74
43161;BME280;40968;52.342;5.528;2024-03-22T06:15:53;101712.34;;;9.76;92.62
43161;BME280;40968;52.342;5.528;2024-03-22T06:18:19;101715.94;;;9.75;92.17
43161;BME280;40968;52.342;5.528;2024-03-22T06:20:45;101690.56;;;9.67;92.27
43161;BME280;40968;52.342;5.528;2024-03-22T06:23:13;101529.25;;;8.70;92.03
43161;BME280;40968;52.342;5.528;2024-03-22T06:25:38;101656.06;;;9.46;92.04
43161;BME280;40968;52.342;5.528;2024-03-22T06:28:05;101517.06;;;8.65;91.94
43161;BME280;40968;52.342;5.528;2024-03-22T06:30:31;101615.50;;;9.22;91.76
43161;BME280;40968;52.342;5.528;2024-03-22T06:32:57;101704.81;;;9.83;91.66
43161;BME280;40968;52.342;5.528;2024-03-22T06:35:23;101654.94;;;9.50;91.46
43161;BME280;40968;52.342;5.528;2024-03-22T06:37:49;101652.25;;;9.50;91.55
43161;BME280;40968;52.342;5.528;2024-03-22T06:40:16;101705.75;;;9.82;91.04
43161;BME280;40968;52.342;5.528;2024-03-22T06:42:43;101650.88;;;9.59;91.18
43161;BME280;40968;52.342;5.528;2024-03-22T06:45:09;101705.41;;;9.88;91.16
43161;BME280;40968;52.342;5.528;2024-03-22T06:47:36;101616.28;;;9.40;90.95
43161;BME280;40968;52.342;5.528;2024-03-22T06:50:01;101699.22;;;9.88;90.81
43161;BME280;40968;52.342;5.528;2024-03-22T06:52:28;101701.69;;;9.91;90.75
43161;BME280;40968;52.342;5.528;2024-03-22T06:54:54;101694.69;;;9.88;90.69
43161;BME280;40968;52.342;5.528;2024-03-22T06:57:22;101613.59;;;9.40;90.52
43161;BME280;40968;52.342;5.528;2024-03-22T06:59:47;101680.66;;;9.69;90.33
43161;BME280;40968;52.342;5.528;2024-03-22T07:02:14;101703.34;;;9.93;90.40
43161;BME280;40968;52.342;5.528;2024-03-22T07:04:39;101645.53;;;9.59;89.99
43161;BME280;40968;52.342;5.528;2024-03-22T07:07:06;101702.44;;;9.93;90.10
43161;BME280;40968;52.342;5.528;2024-03-22T07:09:32;101693.31;;;9.81;89.88
43161;BME280;40968;52.342;5.528;2024-03-22T07:11:59;101528.91;;;8.92;89.64
43161;BME280;40968;52.342;5.528;2024-03-22T07:14:26;101641.78;;;9.61;89.85
43161;BME280;40968;52.342;5.528;2024-03-22T07:16:53;101700.47;;;9.96;89.67
43161;BME280;40968;52.342;5.528;2024-03-22T07:19:19;101526.66;;;9.01;89.40
43161;BME280;40968;52.342;5.528;2024-03-22T07:21:46;101692.44;;;9.96;89.68
43161;BME280;40968;52.342;5.528;2024-03-22T07:24:12;101527.97;;;8.93;89.26
43161;BME280;40968;52.342;5.528;2024-03-22T07:26:38;101686.13;;;9.98;89.23
43161;BME280;40968;52.342;5.528;2024-03-22T07:29:04;101634.53;;;9.63;89.26
43161;BME280;40968;52.342;5.528;2024-03-22T07:31:32;101480.63;;;8.63;88.99
43161;BME280;40968;52.342;5.528;2024-03-22T07:33:57;101403.09;;;8.32;88.95
43161;BME280;40968;52.342;5.528;2024-03-22T07:36:24;101459.06;;;8.67;89.01
43161;BME280;40968;52.342;5.528;2024-03-22T07:38:51;101691.13;;;10.04;88.93
43161;BME280;40968;52.342;5.528;2024-03-22T07:41:18;101685.69;;;10.05;88.91
43161;BME280;40968;52.342;5.528;2024-03-22T07:43:43;101685.69;;;10.05;88.96
43161;BME280;40968;52.342;5.528;2024-03-22T07:46:10;101689.41;;;10.03;88.81
43161;BME280;40968;52.342;5.528;2024-03-22T07:48:38;101280.44;;;7.64;88.79
43161;BME280;40968;52.342;5.528;2024-03-22T07:51:04;101350.63;;;7.99;88.78
43161;BME280;40968;52.342;5.528;2024-03-22T07:53:30;101677.56;;;10.07;89.21
43161;BME280;40968;52.342;5.528;2024-03-22T07:55:57;101456.28;;;8.68;88.85
43161;BME280;40968;52.342;5.528;2024-03-22T07:58:22;101434.59;;;8.58;88.92
43161;BME280;40968;52.342;5.528;2024-03-22T08:00:49;101691.91;;;10.06;89.14
43161;BME280;40968;52.342;5.528;2024-03-22T08:03:15;101683.84;;;10.06;89.28
43161;BME280;40968;52.342;5.528;2024-03-22T08:05:44;101467.50;;;8.75;89.17
43161;BME280;40968;52.342;5.528;2024-03-22T08:08:09;101706.06;;;10.08;89.39
43161;BME280;40968;52.342;5.528;2024-03-22T08:10:36;101430.81;;;8.46;89.17
43161;BME280;40968;52.342;5.528;2024-03-22T08:13:02;101644.81;;;9.71;89.44
43161;BME280;40968;52.342;5.528;2024-03-22T08:15:29;101650.16;;;9.71;89.43
43161;BME280;40968;52.342;5.528;2024-03-22T08:17:55;101693.22;;;9.99;89.70
43161;BME280;40968;52.342;5.528;2024-03-22T08:20:22;101664.84;;;9.80;89.78
43161;BME280;40968;52.342;5.528;2024-03-22T08:22:49;101706.59;;;9.99;90.07
43161;BME280;40968;52.342;5.528;2024-03-22T08:25:16;101700.66;;;9.93;90.26
43161;BME280;40968;52.342;5.528;2024-03-22T08:27:43;101513.38;;;8.83;90.62
43161;BME280;40968;52.342;5.528;2024-03-22T08:30:11;101644.66;;;9.58;91.18
43161;BME280;40968;52.342;5.528;2024-03-22T08:32:37;101708.88;;;9.90;91.37
43161;BME280;40968;52.342;5.528;2024-03-22T08:35:04;101645.78;;;9.54;92.03
43161;BME280;40968;52.342;5.528;2024-03-22T08:37:30;101695.94;;;9.83;92.54
43161;BME280;40968;52.342;5.528;2024-03-22T08:39:58;101491.66;;;8.57;92.99
43161;BME280;40968;52.342;5.528;2024-03-22T08:42:23;101456.00;;;8.41;93.82
43161;BME280;40968;52.342;5.528;2024-03-22T08:44:50;101685.47;;;9.78;95.05
43161;BME280;40968;52.342;5.528;2024-03-22T08:47:15;101602.72;;;9.27;95.73
43161;BME280;40968;52.342;5.528;2024-03-22T08:49:42;101688.34;;;9.75;96.27
43161;BME280;40968;52.342;5.528;2024-03-22T08:52:09;101687.44;;;9.74;96.89
43161;BME280;40968;52.342;5.528;2024-03-22T08:54:36;101542.69;;;8.85;97.18
43161;BME280;40968;52.342;5.528;2024-03-22T08:57:03;101530.47;;;8.81;97.74
43161;BME280;40968;52.342;5.528;2024-03-22T08:59:29;101666.06;;;9.58;98.48
43161;BME280;40968;52.342;5.528;2024-03-22T09:01:55;101696.47;;;9.73;98.77
43161;BME280;40968;52.342;5.528;2024-03-22T09:04:22;101523.72;;;8.73;98.98
43161;BME280;40968;52.342;5.528;2024-03-22T09:06:47;101679.69;;;9.70;99.43
43161;BME280;40968;52.342;5.528;2024-03-22T09:09:14;101685.22;;;9.67;99.65
43161;BME280;40968;52.342;5.528;2024-03-22T09:11:39;101640.16;;;9.43;100.00
43161;BME280;40968;52.342;5.528;2024-03-22T09:14:07;101686.25;;;9.64;100.00
43161;BME280;40968;52.342;5.528;2024-03-22T09:16:33;101683.50;;;9.66;100.00
43161;BME280;40968;52.342;5.528;2024-03-22T09:18:59;101683.50;;;9.66;100.00
43161;BME280;40968;52.342;5.528;2024-03-22T09:21:25;101678.31;;;9.62;100.00
43161;BME280;40968;52.342;5.528;2024-03-22T09:23:51;101692.63;;;9.61;100.00
43161;BME280;40968;52.342;5.528;2024-03-22T09:26:17;101681.94;;;9.61;100.00
43161;BME280;40968;52.342;5.528;2024-03-22T09:28:46;101681.94;;;9.61;100.00
43161;BME280;40968;52.342;5.528;2024-03-22T09:31:13;101493.53;;;8.55;100.00
43161;BME280;40968;52.342;5.528;2024-03-22T09:33:39;101471.25;;;8.39;100.00
43161;BME280;40968;52.342;5.528;2024-03-22T09:36:05;101677.47;;;9.62;100.00
43161;BME280;40968;52.342;5.528;2024-03-22T09:38:32;101672.97;;;9.62;100.00
43161;BME280;40968;52.342;5.528;2024-03-22T09:40:58;101681.94;;;9.61;100.00
43161;BME280;40968;52.342;5.528;2024-03-22T09:43:26;101670.38;;;9.61;100.00
43161;BME280;40968;52.342;5.528;2024-03-22T09:45:52;101677.56;;;9.60;100.00
43161;BME280;40968;52.342;5.528;2024-03-22T09:48:22;101607.56;;;9.20;100.00
43161;BME280;40968;52.342;5.528;2024-03-22T09:50:49;101654.00;;;9.51;100.00
43161;BME280;40968;52.342;5.528;2024-03-22T09:53:18;101628.00;;;9.37;100.00
43161;BME280;40968;52.342;5.528;2024-03-22T09:55:46;101575.66;;;9.17;100.00
43161;BME280;40968;52.342;5.528;2024-03-22T09:58:13;101640.25;;;9.57;100.00
43161;BME280;40968;52.342;5.528;2024-03-22T10:00:39;101498.53;;;8.61;100.00
43161;BME280;40968;52.342;5.528;2024-03-22T10:03:06;101663.44;;;9.73;100.00
43161;BME280;40968;52.342;5.528;2024-03-22T10:05:34;101623.78;;;9.49;100.00
43161;BME280;40968;52.342;5.528;2024-03-22T10:08:01;101605.47;;;9.41;100.00
43161;BME280;40968;52.342;5.528;2024-03-22T10:10:27;101519.94;;;8.93;100.00
43161;BME280;40968;52.342;5.528;2024-03-22T10:12:53;101665.00;;;9.77;100.00
43161;BME280;40968;52.342;5.528;2024-03-22T10:15:19;101671.91;;;9.81;100.00
43161;BME280;40968;52.342;5.528;2024-03-22T10:17:46;101539.84;;;9.04;100.00
43161;BME280;40968;52.342;5.528;2024-03-22T10:20:12;101392.78;;;8.25;100.00
43161;BME280;40968;52.342;5.528;2024-03-22T10:22:43;101617.03;;;9.58;100.00
43161;BME280;40968;52.342;5.528;2024-03-22T10:25:09;101665.16;;;9.90;100.00
43161;BME280;40968;52.342;5.528;2024-03-22T10:27:38;101563.00;;;9.35;100.00
43161;BME280;40968;52.342;5.528;2024-03-22T10:30:08;101653.22;;;9.95;100.00
43161;BME280;40968;52.342;5.528;2024-03-22T10:32:34;101617.59;;;9.79;100.00
43161;BME280;40968;52.342;5.528;2024-03-22T10:35:02;101653.06;;;9.99;100.00
43161;BME280;40968;52.342;5.528;2024-03-22T10:37:30;101448.78;;;8.75;100.00
43161;BME280;40968;52.342;5.528;2024-03-22T10:39:58;101522.09;;;9.03;100.00
43161;BME280;40968;52.342;5.528;2024-03-22T10:42:27;101615.13;;;9.60;100.00
43161;BME280;40968;52.342;5.528;2024-03-22T10:44:53;101655.31;;;9.90;100.00
43161;BME280;40968;52.342;5.528;2024-03-22T10:47:21;101592.16;;;9.56;100.00
43161;BME280;40968;52.342;5.528;2024-03-22T10:49:52;101663.84;;;9.97;100.00
43161;BME280;40968;52.342;5.528;2024-03-22T10:52:24;101559.75;;;9.46;100.00
43161;BME280;40968;52.342;5.528;2024-03-22T10:54:51;101439.06;;;8.74;100.00
43161;BME280;40968;52.342;5.528;2024-03-22T10:57:18;101642.84;;;10.05;100.00
43161;BME280;40968;52.342;5.528;2024-03-22T10:59:46;101648.09;;;10.07;100.00
43161;BME280;40968;52.342;5.528;2024-03-22T11:02:11;101606.59;;;9.84;100.00
43161;BME280;40968;52.342;5.528;2024-03-22T11:04:38;101488.16;;;9.19;100.00
43161;BME280;40968;52.342;5.528;2024-03-22T11:07:04;101426.31;;;8.79;100.00
43161;BME280;40968;52.342;5.528;2024-03-22T11:09:31;101363.38;;;8.41;100.00
43161;BME280;40968;52.342;5.528;2024-03-22T11:11:57;101645.22;;;10.10;100.00
43161;BME280;40968;52.342;5.528;2024-03-22T11:14:25;101638.16;;;10.09;100.00
43161;BME280;40968;52.342;5.528;2024-03-22T11:16:51;101589.00;;;9.79;100.00
43161;BME280;40968;52.342;5.528;2024-03-22T11:19:18;101409.59;;;8.75;100.00
43161;BME280;40968;52.342;5.528;2024-03-22T11:21:44;101438.84;;;8.93;100.00
43161;BME280;40968;52.342;5.528;2024-03-22T11:24:10;101574.84;;;9.77;100.00
43161;BME280;40968;52.342;5.528;2024-03-22T11:26:36;101558.66;;;9.65;100.00
43161;BME280;40968;52.342;5.528;2024-03-22T11:29:03;101623.25;;;10.05;100.00
43161;BME280;40968;52.342;5.528;2024-03-22T11:31:30;101601.59;;;9.93;100.00
43161;BME280;40968;52.342;5.528;2024-03-22T11:33:57;101628.41;;;10.08;100.00
43161;BME280;40968;52.342;5.528;2024-03-22T11:36:23;101619.69;;;10.04;100.00
43161;BME280;40968;52.342;5.528;2024-03-22T11:38:50;101614.31;;;10.04;100.00
43161;BME280;40968;52.342;5.528;2024-03-22T11:41:18;101578.28;;;9.79;100.00
43161;BME280;40968;52.342;5.528;2024-03-22T11:43:47;101614.16;;;10.07;100.00
43161;BME280;40968;52.342;5.528;2024-03-22T11:46:13;101563.09;;;9.80;100.00
43161;BME280;40968;52.342;5.528;2024-03-22T11:48:41;101620.16;;;10.11;100.00
43161;BME280;40968;52.342;5.528;2024-03-22T11:51:07;101580.16;;;9.93;100.00
43161;BME280;40968;52.342;5.528;2024-03-22T11:53:34;101411.09;;;8.95;100.00
43161;BME280;40968;52.342;5.528;2024-03-22T11:56:00;101408.31;;;8.97;100.00
43161;BME280;40968;52.342;5.528;2024-03-22T11:58:29;101615.41;;;10.16;100.00
43161;BME280;40968;52.342;5.528;2024-03-22T12:00:55;101605.63;;;10.15;100.00
43161;BME280;40968;52.342;5.528;2024-03-22T12:03:21;101535.75;;;9.75;100.00
43161;BME280;40968;52.342;5.528;2024-03-22T12:05:49;101551.41;;;9.81;100.00
43161;BME280;40968;52.342;5.528;2024-03-22T12:08:16;101520.25;;;9.66;100.00
43161;BME280;40968;52.342;5.528;2024-03-22T12:10:41;101594.34;;;10.10;100.00
43161;BME280;40968;52.342;5.528;2024-03-22T12:13:08;101598.75;;;10.11;100.00
43161;BME280;40968;52.342;5.528;2024-03-22T12:15:34;101592.53;;;10.10;100.00
43161;BME280;40968;52.342;5.528;2024-03-22T12:18:00;101591.66;;;10.10;100.00
43161;BME280;40968;52.342;5.528;2024-03-22T12:20:26;101590.72;;;10.11;100.00
43161;BME280;40968;52.342;5.528;2024-03-22T12:22:54;101365.78;;;8.78;100.00
43161;BME280;40968;52.342;5.528;2024-03-22T12:25:19;101559.78;;;9.91;100.00
43161;BME280;40968;52.342;5.528;2024-03-22T12:27:46;101589.94;;;10.09;100.00
43161;BME280;40968;52.342;5.528;2024-03-22T12:30:12;101573.44;;;9.86;100.00
43161;BME280;40968;52.342;5.528;2024-03-22T12:32:39;101580.09;;;10.09;100.00
43161;BME280;40968;52.342;5.528;2024-03-22T12:35:05;101465.66;;;9.38;100.00
43161;BME280;40968;52.342;5.528;2024-03-22T12:37:33;101582.66;;;10.11;100.00
43161;BME280;40968;52.342;5.528;2024-03-22T12:40:00;101584.31;;;10.13;100.00
43161;BME280;40968;52.342;5.528;2024-03-22T12:42:27;101586.97;;;10.13;100.00
43161;BME280;40968;52.342;5.528;2024-03-22T12:44:53;101590.59;;;10.12;100.00
43161;BME280;40968;52.342;5.528;2024-03-22T12:47:20;101516.22;;;9.73;100.00
43161;BME280;40968;52.342;5.528;2024-03-22T12:49:46;101575.41;;;10.13;100.00